createdAt,value
2019-03-16T00:00:59.511Z,19.92
2019-03-16T00:02:00.988Z,19.90
2019-03-16T00:03:02.389Z,19.89
2019-03-16T00:04:03.868Z,19.87
2019-03-16T00:05:05.971Z,19.86
2019-03-16T00:06:07.452Z,19.85
2019-03-16T00:07:08.936Z,19.85
2019-03-16T00:08:10.316Z,19.84
2019-03-16T00:09:11.717Z,19.83
2019-03-16T00:10:13.128Z,19.83
2019-03-16T00:11:14.553Z,19.83
2019-03-16T00:12:15.932Z,19.81
2019-03-16T00:13:17.328Z,19.82
2019-03-16T00:14:18.708Z,19.81
2019-03-16T00:15:21.193Z,19.80
2019-03-16T00:16:22.576Z,19.80
2019-03-16T00:17:23.996Z,19.79
2019-03-16T00:18:25.397Z,19.77
2019-03-16T00:19:26.806Z,19.75
2019-03-16T00:20:28.201Z,19.74
2019-03-16T00:21:29.646Z,19.74
2019-03-16T00:22:31.026Z,19.71
2019-03-16T00:23:32.412Z,19.71
2019-03-16T00:24:40.620Z,19.70
2019-03-16T00:25:42.062Z,19.69
2019-03-16T00:26:43.447Z,19.69
2019-03-16T00:27:44.830Z,19.66
2019-03-16T00:28:46.224Z,19.66
2019-03-16T00:29:47.621Z,19.64
2019-03-16T00:30:49.109Z,19.63
2019-03-16T00:31:50.547Z,19.63
2019-03-16T00:32:51.958Z,19.62
2019-03-16T00:33:53.383Z,19.60
2019-03-16T00:34:54.797Z,19.59
2019-03-16T00:35:56.311Z,19.59
2019-03-16T00:36:57.922Z,19.58
2019-03-16T00:37:59.295Z,19.59
2019-03-16T00:39:00.796Z,19.57
2019-03-16T00:40:04.564Z,19.57
2019-03-16T00:41:05.964Z,19.56
2019-03-16T00:42:07.440Z,19.55
2019-03-16T00:43:08.955Z,19.54
2019-03-16T00:44:10.367Z,19.53
2019-03-16T00:45:11.867Z,19.52
2019-03-16T00:46:13.280Z,19.52
2019-03-16T00:47:15.336Z,19.51
2019-03-16T00:48:16.716Z,19.50
2019-03-16T00:49:18.218Z,19.50
2019-03-16T00:50:19.592Z,19.50
2019-03-16T00:51:20.982Z,19.50
2019-03-16T00:52:22.650Z,19.49
2019-03-16T00:53:24.024Z,19.49
2019-03-16T00:54:25.508Z,19.50
2019-03-16T00:55:27.191Z,19.49
2019-03-16T00:56:28.582Z,19.49
2019-03-16T00:57:29.991Z,19.49
2019-03-16T00:58:31.380Z,19.49
2019-03-16T00:59:32.765Z,19.48
2019-03-16T01:00:34.156Z,19.49
2019-03-16T01:01:35.652Z,19.48
2019-03-16T01:02:37.153Z,19.48
2019-03-16T01:03:38.522Z,19.48
2019-03-16T01:04:40.032Z,19.48
2019-03-16T01:05:41.512Z,19.48
2019-03-16T01:06:42.923Z,19.48
2019-03-16T01:07:44.445Z,19.48
2019-03-16T01:08:45.966Z,19.47
2019-03-16T01:09:47.379Z,19.48
2019-03-16T01:10:48.892Z,19.47
2019-03-16T01:11:50.333Z,19.47
2019-03-16T01:12:51.756Z,19.46
2019-03-16T01:13:53.235Z,19.47
2019-03-16T01:14:54.641Z,19.47
2019-03-16T01:15:56.008Z,19.45
2019-03-16T01:16:57.411Z,19.47
2019-03-16T01:17:58.796Z,19.46
2019-03-16T01:19:00.214Z,19.46
2019-03-16T01:20:01.927Z,19.47
2019-03-16T01:21:03.337Z,19.47
2019-03-16T01:22:04.823Z,19.46
2019-03-16T01:23:06.308Z,19.47
2019-03-16T01:24:07.684Z,19.47
2019-03-16T01:25:10.393Z,19.47
2019-03-16T01:26:11.768Z,19.47
2019-03-16T01:27:13.165Z,19.46
2019-03-16T01:28:14.562Z,19.45
2019-03-16T01:29:15.949Z,19.45
2019-03-16T01:30:17.430Z,19.43
2019-03-16T01:31:18.821Z,19.42
2019-03-16T01:32:20.308Z,19.42
2019-03-16T01:33:21.740Z,19.42
2019-03-16T01:34:23.211Z,19.41
2019-03-16T01:35:24.609Z,19.40
2019-03-16T01:36:25.983Z,19.38
2019-03-16T01:37:27.384Z,19.38
2019-03-16T01:38:28.773Z,19.38
2019-03-16T01:39:30.160Z,19.38
2019-03-16T01:40:31.552Z,19.37
2019-03-16T01:41:32.933Z,19.37
2019-03-16T01:42:34.323Z,19.37
2019-03-16T01:43:35.749Z,19.36
2019-03-16T01:44:37.131Z,19.35
2019-03-16T01:45:38.538Z,19.35
2019-03-16T01:46:39.919Z,19.33
2019-03-16T01:47:41.431Z,19.33
2019-03-16T01:48:42.840Z,19.33
2019-03-16T01:49:44.323Z,19.32
2019-03-16T01:50:45.713Z,19.31
2019-03-16T01:51:47.090Z,19.31
2019-03-16T01:52:48.471Z,19.31
2019-03-16T01:53:50.049Z,19.31
2019-03-16T01:54:51.425Z,19.31
2019-03-16T01:55:52.905Z,19.31
2019-03-16T01:56:54.288Z,19.31
2019-03-16T01:57:56.765Z,19.30
2019-03-16T01:58:58.183Z,19.32
2019-03-16T01:59:59.676Z,19.31
2019-03-16T02:01:02.162Z,19.31
2019-03-16T02:02:03.548Z,19.31
2019-03-16T02:03:04.934Z,19.31
2019-03-16T02:04:06.369Z,19.31
2019-03-16T02:05:07.851Z,19.32
2019-03-16T02:06:09.344Z,19.31
2019-03-16T02:07:10.924Z,19.31
2019-03-16T02:08:12.319Z,19.31
2019-03-16T02:09:13.705Z,19.31
2019-03-16T02:10:15.096Z,19.31
2019-03-16T02:11:16.581Z,19.31
2019-03-16T02:12:18.062Z,19.30
2019-03-16T02:13:19.450Z,19.29
2019-03-16T02:14:20.984Z,19.30
2019-03-16T02:15:22.374Z,19.30
2019-03-16T02:16:23.769Z,19.29
2019-03-16T02:17:25.143Z,19.29
2019-03-16T02:18:26.536Z,19.29
2019-03-16T02:19:27.924Z,19.30
2019-03-16T02:20:29.323Z,19.30
2019-03-16T02:21:30.735Z,19.32
2019-03-16T02:22:33.300Z,19.31
2019-03-16T02:23:34.676Z,19.31
2019-03-16T02:24:36.135Z,19.33
2019-03-16T02:25:37.515Z,19.33
2019-03-16T02:26:38.889Z,19.32
2019-03-16T02:27:40.376Z,19.33
2019-03-16T02:28:44.463Z,19.34
2019-03-16T02:29:45.858Z,19.31
2019-03-16T02:30:48.202Z,19.32
2019-03-16T02:31:49.602Z,19.32
2019-03-16T02:32:51.010Z,19.32
2019-03-16T02:33:52.416Z,19.31
2019-03-16T02:34:53.843Z,19.32
2019-03-16T02:35:55.216Z,19.31
2019-03-16T02:36:56.621Z,19.31
2019-03-16T02:37:58.090Z,19.30
2019-03-16T02:38:59.476Z,19.30
2019-03-16T02:40:00.956Z,19.29
2019-03-16T02:41:03.375Z,19.29
2019-03-16T02:42:04.782Z,19.29
2019-03-16T02:43:06.193Z,19.28
2019-03-16T02:44:11.133Z,19.26
2019-03-16T02:45:10.904Z,19.27
2019-03-16T02:46:12.279Z,19.27
2019-03-16T02:47:13.679Z,19.26
2019-03-16T02:48:15.054Z,19.23
2019-03-16T02:49:16.454Z,19.23
2019-03-16T02:50:17.836Z,19.20
2019-03-16T02:51:19.250Z,19.19
2019-03-16T02:52:20.660Z,19.20
2019-03-16T02:53:22.079Z,19.19
2019-03-16T02:54:23.455Z,19.20
2019-03-16T02:55:25.016Z,19.20
2019-03-16T02:56:26.384Z,19.20
2019-03-16T02:57:27.791Z,19.21
2019-03-16T02:58:29.173Z,19.19
2019-03-16T02:59:34.533Z,19.21
2019-03-16T03:00:35.920Z,19.21
2019-03-16T03:01:37.355Z,19.21
2019-03-16T03:02:38.744Z,19.21
2019-03-16T03:03:41.133Z,19.21
2019-03-16T03:04:46.034Z,19.22
2019-03-16T03:05:45.962Z,19.21
2019-03-16T03:06:47.336Z,19.22
2019-03-16T03:07:48.730Z,19.21
2019-03-16T03:08:50.111Z,19.22
2019-03-16T03:09:51.508Z,19.22
2019-03-16T03:10:52.901Z,19.21
2019-03-16T03:11:54.298Z,19.21
2019-03-16T03:12:55.791Z,19.20
2019-03-16T03:13:57.191Z,19.19
2019-03-16T03:14:58.563Z,19.19
2019-03-16T03:15:59.997Z,19.18
2019-03-16T03:17:01.367Z,19.19
2019-03-16T03:18:02.871Z,19.19
2019-03-16T03:19:04.246Z,19.18
2019-03-16T03:20:07.273Z,19.18
2019-03-16T03:21:08.670Z,19.18
2019-03-16T03:22:10.054Z,19.18
2019-03-16T03:23:11.441Z,19.17
2019-03-16T03:24:12.935Z,19.16
2019-03-16T03:25:14.305Z,19.17
2019-03-16T03:26:15.963Z,19.16
2019-03-16T03:27:17.343Z,19.16
2019-03-16T03:28:19.825Z,19.17
2019-03-16T03:29:21.235Z,19.18
2019-03-16T03:30:22.779Z,19.19
2019-03-16T03:31:24.299Z,19.18
2019-03-16T03:32:25.704Z,19.19
2019-03-16T03:33:27.125Z,19.19
2019-03-16T03:34:28.546Z,19.21
2019-03-16T03:35:29.979Z,19.20
2019-03-16T03:36:31.404Z,19.20
2019-03-16T03:37:32.885Z,19.21
2019-03-16T03:38:34.281Z,19.22
2019-03-16T03:39:35.684Z,19.21
2019-03-16T03:40:37.307Z,19.21
2019-03-16T03:41:38.826Z,19.21
2019-03-16T03:42:40.304Z,19.20
2019-03-16T03:43:41.696Z,19.21
2019-03-16T03:44:43.183Z,19.19
2019-03-16T03:45:44.583Z,19.20
2019-03-16T03:46:45.993Z,19.20
2019-03-16T03:47:47.510Z,19.21
2019-03-16T03:48:49.211Z,19.19
2019-03-16T03:49:50.624Z,19.18
2019-03-16T03:50:52.032Z,19.20
2019-03-16T03:51:53.538Z,19.20
2019-03-16T03:52:54.953Z,19.20
2019-03-16T03:53:56.528Z,19.19
2019-03-16T03:54:58.108Z,19.19
2019-03-16T03:55:59.521Z,19.20
2019-03-16T03:57:01.057Z,19.18
2019-03-16T03:58:02.643Z,19.18
2019-03-16T03:59:04.018Z,19.18
2019-03-16T04:00:08.902Z,19.16
2019-03-16T04:01:10.403Z,19.15
2019-03-16T04:02:11.895Z,19.16
2019-03-16T04:03:13.289Z,19.15
2019-03-16T04:04:16.071Z,19.14
2019-03-16T04:05:17.858Z,19.14
2019-03-16T04:06:19.351Z,19.13
2019-03-16T04:07:20.861Z,19.12
2019-03-16T04:08:22.329Z,19.12
2019-03-16T04:09:23.732Z,19.11
2019-03-16T04:10:25.121Z,19.11
2019-03-16T04:11:26.524Z,19.11
2019-03-16T04:12:28.026Z,19.10
2019-03-16T04:13:29.493Z,19.10
2019-03-16T04:14:30.998Z,19.11
2019-03-16T04:15:32.571Z,19.10
2019-03-16T04:16:33.959Z,19.11
2019-03-16T04:17:35.441Z,19.10
2019-03-16T04:18:36.845Z,19.10
2019-03-16T04:19:38.256Z,19.10
2019-03-16T04:20:39.769Z,19.10
2019-03-16T04:21:41.176Z,19.11
2019-03-16T04:22:42.639Z,19.11
2019-03-16T04:23:43.967Z,19.10
2019-03-16T04:24:46.475Z,19.11
2019-03-16T04:25:47.872Z,19.12
2019-03-16T04:26:49.243Z,19.11
2019-03-16T04:27:50.704Z,19.11
2019-03-16T04:28:52.089Z,19.13
2019-03-16T04:29:53.474Z,19.12
2019-03-16T04:30:55.961Z,19.12
2019-03-16T04:31:57.377Z,19.13
2019-03-16T04:32:58.791Z,19.13
2019-03-16T04:34:00.311Z,19.13
2019-03-16T04:35:01.689Z,19.13
2019-03-16T04:36:03.072Z,19.14
2019-03-16T04:37:04.460Z,19.16
2019-03-16T04:38:05.949Z,19.16
2019-03-16T04:39:07.334Z,19.15
2019-03-16T04:40:10.033Z,19.16
2019-03-16T04:41:11.518Z,19.15
2019-03-16T04:42:13.058Z,19.16
2019-03-16T04:43:14.472Z,19.17
2019-03-16T04:44:15.885Z,19.16
2019-03-16T04:45:17.300Z,19.16
2019-03-16T04:46:18.708Z,19.16
2019-03-16T04:47:20.224Z,19.16
2019-03-16T04:48:21.652Z,19.16
2019-03-16T04:49:23.028Z,19.17
2019-03-16T04:50:24.427Z,19.17
2019-03-16T04:51:25.813Z,19.17
2019-03-16T04:52:27.215Z,19.18
2019-03-16T04:53:28.604Z,19.17
2019-03-16T04:54:30.020Z,19.18
2019-03-16T04:55:37.956Z,19.18
2019-03-16T04:56:39.369Z,19.19
2019-03-16T04:57:40.770Z,19.19
2019-03-16T04:58:42.326Z,19.18
2019-03-16T04:59:43.712Z,19.18
2019-03-16T05:00:45.114Z,19.16
2019-03-16T05:01:46.495Z,19.15
2019-03-16T05:02:47.895Z,19.15
2019-03-16T05:03:49.435Z,19.16
2019-03-16T05:04:50.932Z,19.16
2019-03-16T05:05:52.317Z,19.15
2019-03-16T05:06:53.714Z,19.15
2019-03-16T05:07:55.094Z,19.15
2019-03-16T05:08:56.520Z,19.16
2019-03-16T05:09:57.918Z,19.13
2019-03-16T05:10:59.336Z,19.13
2019-03-16T05:12:00.797Z,19.12
2019-03-16T05:13:03.309Z,19.12
2019-03-16T05:14:04.711Z,19.11
2019-03-16T05:15:07.695Z,19.10
2019-03-16T05:16:09.093Z,19.11
2019-03-16T05:17:10.576Z,19.11
2019-03-16T05:18:11.976Z,19.11
2019-03-16T05:19:13.397Z,19.11
2019-03-16T05:20:14.813Z,19.10
2019-03-16T05:21:16.224Z,19.10
2019-03-16T05:22:17.744Z,19.10
2019-03-16T05:23:19.161Z,19.11
2019-03-16T05:24:20.716Z,19.10
2019-03-16T05:25:22.196Z,19.11
2019-03-16T05:26:23.601Z,19.11
2019-03-16T05:27:25.077Z,19.10
2019-03-16T05:28:26.462Z,19.10
2019-03-16T05:29:27.914Z,19.11
2019-03-16T05:30:29.288Z,19.10
2019-03-16T05:31:30.669Z,19.10
2019-03-16T05:32:32.174Z,19.11
2019-03-16T05:33:33.557Z,19.11
2019-03-16T05:34:35.365Z,19.10
2019-03-16T05:35:36.750Z,19.09
2019-03-16T05:36:38.144Z,19.10
2019-03-16T05:37:39.624Z,19.11
2019-03-16T05:38:41.021Z,19.11
2019-03-16T05:39:42.417Z,19.10
2019-03-16T05:40:43.830Z,19.11
2019-03-16T05:41:45.244Z,19.12
2019-03-16T05:42:46.655Z,19.11
2019-03-16T05:43:48.192Z,19.11
2019-03-16T05:44:49.690Z,19.12
2019-03-16T05:45:51.068Z,19.12
2019-03-16T05:46:52.464Z,19.13
2019-03-16T05:47:53.843Z,19.14
2019-03-16T05:48:55.243Z,19.13
2019-03-16T05:49:56.631Z,19.13
2019-03-16T05:50:58.140Z,19.14
2019-03-16T05:51:59.657Z,19.13
2019-03-16T05:53:01.065Z,19.13
2019-03-16T05:54:02.475Z,19.14
2019-03-16T05:55:04.368Z,19.14
2019-03-16T05:56:05.741Z,19.14
2019-03-16T05:57:08.142Z,19.13
2019-03-16T05:58:09.519Z,19.14
2019-03-16T05:59:10.909Z,19.13
2019-03-16T06:00:13.861Z,19.12
2019-03-16T06:01:15.240Z,19.13
2019-03-16T06:02:16.616Z,19.15
2019-03-16T06:03:18.011Z,19.14
2019-03-16T06:04:19.382Z,19.14
2019-03-16T06:05:20.919Z,19.14
2019-03-16T06:06:22.300Z,19.15
2019-03-16T06:07:24.784Z,19.16
2019-03-16T06:08:26.173Z,19.16
2019-03-16T06:09:27.563Z,19.16
2019-03-16T06:10:29.085Z,19.16
2019-03-16T06:11:30.492Z,19.15
2019-03-16T06:12:31.912Z,19.16
2019-03-16T06:13:33.315Z,19.16
2019-03-16T06:14:34.738Z,19.15
2019-03-16T06:15:36.136Z,19.14
2019-03-16T06:16:37.510Z,19.14
2019-03-16T06:17:38.912Z,19.14
2019-03-16T06:18:40.290Z,19.14
2019-03-16T06:19:41.692Z,19.13
2019-03-16T06:20:43.195Z,19.12
2019-03-16T06:21:44.607Z,19.12
2019-03-16T06:22:46.021Z,19.11
2019-03-16T06:23:47.428Z,19.11
2019-03-16T06:24:48.847Z,19.11
2019-03-16T06:25:50.441Z,19.09
2019-03-16T06:26:51.813Z,19.10
2019-03-16T06:27:53.213Z,19.08
2019-03-16T06:28:54.588Z,19.08
2019-03-16T06:29:55.993Z,19.08
2019-03-16T06:30:57.463Z,19.09
2019-03-16T06:31:58.850Z,19.07
2019-03-16T06:33:00.224Z,19.07
2019-03-16T06:34:01.609Z,19.07
2019-03-16T06:35:03.685Z,19.07
2019-03-16T06:36:05.092Z,19.06
2019-03-16T06:37:06.755Z,19.06
2019-03-16T06:38:08.140Z,19.06
2019-03-16T06:39:09.528Z,19.05
2019-03-16T06:40:11.139Z,19.06
2019-03-16T06:41:12.663Z,19.05
2019-03-16T06:42:14.043Z,19.05
2019-03-16T06:43:15.451Z,19.05
2019-03-16T06:44:16.936Z,19.06
2019-03-16T06:45:18.437Z,19.06
2019-03-16T06:46:19.825Z,19.06
2019-03-16T06:47:23.157Z,19.06
2019-03-16T06:48:24.500Z,19.07
2019-03-16T06:49:25.890Z,19.08
2019-03-16T06:50:27.291Z,19.07
2019-03-16T06:51:28.725Z,19.08
2019-03-16T06:52:30.196Z,19.08
2019-03-16T06:53:31.593Z,19.09
2019-03-16T06:54:32.969Z,19.09
2019-03-16T06:55:34.376Z,19.09
2019-03-16T06:56:35.876Z,19.09
2019-03-16T06:57:38.262Z,19.10
2019-03-16T06:58:39.653Z,19.11
2019-03-16T06:59:41.144Z,19.11
2019-03-16T07:00:42.518Z,19.10
2019-03-16T07:01:43.966Z,19.10
2019-03-16T07:02:45.341Z,19.11
2019-03-16T07:03:46.717Z,19.10
2019-03-16T07:04:48.111Z,19.10
2019-03-16T07:05:49.489Z,19.11
2019-03-16T07:06:51.043Z,19.08
2019-03-16T07:07:52.531Z,19.11
2019-03-16T07:08:53.921Z,19.12
2019-03-16T07:09:55.307Z,19.12
2019-03-16T07:10:56.693Z,19.15
2019-03-16T07:11:58.227Z,19.17
2019-03-16T07:12:59.601Z,19.18
2019-03-16T07:14:01.005Z,19.20
2019-03-16T07:15:04.185Z,19.23
2019-03-16T07:16:05.588Z,19.26
2019-03-16T07:17:07.078Z,19.31
2019-03-16T07:18:08.476Z,19.34
2019-03-16T07:19:09.860Z,19.38
2019-03-16T07:20:12.548Z,19.42
2019-03-16T07:21:13.923Z,19.47
2019-03-16T07:22:15.316Z,19.53
2019-03-16T07:23:16.873Z,19.57
2019-03-16T07:24:18.272Z,19.62
2019-03-16T07:25:19.737Z,19.67
2019-03-16T07:26:21.132Z,19.73
2019-03-16T07:27:26.470Z,19.78
2019-03-16T07:28:25.816Z,19.83
2019-03-16T07:29:27.196Z,19.89
2019-03-16T07:30:28.683Z,19.93
2019-03-16T07:31:30.058Z,19.98
2019-03-16T07:32:31.541Z,20.02
2019-03-16T07:33:32.921Z,20.07
2019-03-16T07:34:35.321Z,20.11
2019-03-16T07:35:36.695Z,20.16
2019-03-16T07:36:38.095Z,20.19
2019-03-16T07:37:39.576Z,20.23
2019-03-16T07:38:40.988Z,20.27
2019-03-16T07:39:42.393Z,20.31
2019-03-16T07:40:43.797Z,20.35
2019-03-16T07:41:45.200Z,20.38
2019-03-16T07:42:46.619Z,20.41
2019-03-16T07:43:47.989Z,20.46
2019-03-16T07:44:49.480Z,20.48
2019-03-16T07:45:50.859Z,20.52
2019-03-16T07:46:52.257Z,20.54
2019-03-16T07:47:53.667Z,20.57
2019-03-16T07:48:55.172Z,20.60
2019-03-16T07:49:57.576Z,20.63
2019-03-16T07:50:58.986Z,20.65
2019-03-16T07:52:00.497Z,20.69
2019-03-16T07:53:01.929Z,20.73
2019-03-16T07:54:03.306Z,20.74
2019-03-16T07:55:05.305Z,20.75
2019-03-16T07:56:06.876Z,20.78
2019-03-16T07:57:09.274Z,20.80
2019-03-16T07:58:10.664Z,20.82
2019-03-16T07:59:12.069Z,20.85
2019-03-16T08:00:13.478Z,20.85
2019-03-16T08:01:14.885Z,20.88
2019-03-16T08:02:16.276Z,20.89
2019-03-16T08:03:17.739Z,20.92
2019-03-16T08:04:19.111Z,20.93
2019-03-16T08:05:20.528Z,20.93
2019-03-16T08:06:21.888Z,20.94
2019-03-16T08:07:23.288Z,20.96
2019-03-16T08:08:24.683Z,20.95
2019-03-16T08:09:26.075Z,20.97
2019-03-16T08:10:29.990Z,20.97
2019-03-16T08:11:31.404Z,20.97
2019-03-16T08:12:32.817Z,20.99
2019-03-16T08:13:34.243Z,20.98
2019-03-16T08:14:35.720Z,21.01
2019-03-16T08:15:37.118Z,20.99
2019-03-16T08:16:38.498Z,21.02
2019-03-16T08:17:39.893Z,21.02
2019-03-16T08:18:41.416Z,21.03
2019-03-16T08:19:42.832Z,21.05
2019-03-16T08:20:44.250Z,21.05
2019-03-16T08:21:45.656Z,21.07
2019-03-16T08:22:47.064Z,21.06
2019-03-16T08:23:48.635Z,21.05
2019-03-16T08:24:50.010Z,21.05
2019-03-16T08:25:51.418Z,21.05
2019-03-16T08:26:52.891Z,21.05
2019-03-16T08:27:54.863Z,21.03
2019-03-16T08:28:58.944Z,21.03
2019-03-16T08:29:59.800Z,21.03
2019-03-16T08:31:01.216Z,21.02
2019-03-16T08:32:02.717Z,21.02
2019-03-16T08:33:04.134Z,21.01
2019-03-16T08:34:05.601Z,20.99
2019-03-16T08:35:07.673Z,20.98
2019-03-16T08:36:09.067Z,20.98
2019-03-16T08:37:10.441Z,20.97
2019-03-16T08:38:11.832Z,20.97
2019-03-16T08:39:13.225Z,20.96
2019-03-16T08:40:14.607Z,20.95
2019-03-16T08:41:16.446Z,20.94
2019-03-16T08:42:17.987Z,20.93
2019-03-16T08:43:19.382Z,20.91
2019-03-16T08:44:20.927Z,20.90
2019-03-16T08:45:22.406Z,20.89
2019-03-16T08:46:23.800Z,20.87
2019-03-16T08:47:25.277Z,20.86
2019-03-16T08:48:26.669Z,20.85
2019-03-16T08:49:28.177Z,20.83
2019-03-16T08:50:29.556Z,20.84
2019-03-16T08:51:30.963Z,20.82
2019-03-16T08:52:32.348Z,20.80
2019-03-16T08:53:33.736Z,20.80
2019-03-16T08:54:35.336Z,20.78
2019-03-16T08:55:37.909Z,20.78
2019-03-16T08:56:39.313Z,20.78
2019-03-16T08:57:40.793Z,20.77
2019-03-16T08:58:42.191Z,20.77
2019-03-16T08:59:43.676Z,20.77
2019-03-16T09:00:45.172Z,20.77
2019-03-16T09:01:46.553Z,20.78
2019-03-16T09:02:48.042Z,20.79
2019-03-16T09:03:49.416Z,20.80
2019-03-16T09:04:50.873Z,20.80
2019-03-16T09:05:52.249Z,20.81
2019-03-16T09:06:53.646Z,20.82
2019-03-16T09:07:55.114Z,20.81
2019-03-16T09:08:56.601Z,20.81
2019-03-16T09:09:58.180Z,20.82
2019-03-16T09:10:59.564Z,20.82
2019-03-16T09:12:02.060Z,20.82
2019-03-16T09:13:03.454Z,20.82
2019-03-16T09:14:04.855Z,20.82
2019-03-16T09:15:09.281Z,20.82
2019-03-16T09:16:10.647Z,20.82
2019-03-16T09:17:12.142Z,20.82
2019-03-16T09:18:13.510Z,20.81
2019-03-16T09:19:14.908Z,20.82
2019-03-16T09:20:16.317Z,20.82
2019-03-16T09:21:17.798Z,20.83
2019-03-16T09:22:19.181Z,20.84
2019-03-16T09:23:20.569Z,20.83
2019-03-16T09:24:21.955Z,20.83
2019-03-16T09:25:23.386Z,20.84
2019-03-16T09:26:24.760Z,20.84
2019-03-16T09:27:31.205Z,20.86
2019-03-16T09:28:29.420Z,20.86
2019-03-16T09:29:30.815Z,20.87
2019-03-16T09:30:32.230Z,20.88
2019-03-16T09:31:33.614Z,20.87
2019-03-16T09:32:34.995Z,20.87
2019-03-16T09:33:36.604Z,20.87
2019-03-16T09:34:37.984Z,20.87
2019-03-16T09:35:39.449Z,20.88
2019-03-16T09:36:40.825Z,20.87
2019-03-16T09:37:42.224Z,20.88
2019-03-16T09:38:43.698Z,20.88
2019-03-16T09:39:45.075Z,20.87
2019-03-16T09:40:46.732Z,20.88
2019-03-16T09:41:49.222Z,20.87
2019-03-16T09:42:50.709Z,20.88
2019-03-16T09:43:52.240Z,20.87
2019-03-16T09:44:53.634Z,20.86
2019-03-16T09:45:55.046Z,20.85
2019-03-16T09:46:56.417Z,20.85
2019-03-16T09:47:57.830Z,20.85
2019-03-16T09:48:59.211Z,20.84
2019-03-16T09:50:00.610Z,20.83
2019-03-16T09:51:02.025Z,20.83
2019-03-16T09:52:03.413Z,20.83
2019-03-16T09:53:04.910Z,20.81
2019-03-16T09:54:06.304Z,20.82
2019-03-16T09:55:09.795Z,20.81
2019-03-16T09:56:11.192Z,20.81
2019-03-16T09:57:12.562Z,20.82
2019-03-16T09:58:14.061Z,20.81
2019-03-16T09:59:15.525Z,20.79
2019-03-16T10:00:17.016Z,20.80
2019-03-16T10:01:18.408Z,20.79
2019-03-16T10:02:19.803Z,20.80
2019-03-16T10:03:21.290Z,20.80
2019-03-16T10:04:22.678Z,20.80
2019-03-16T10:05:24.152Z,20.79
2019-03-16T10:06:25.607Z,20.79
2019-03-16T10:07:26.978Z,20.79
2019-03-16T10:08:28.458Z,20.81
2019-03-16T10:09:29.838Z,20.76
2019-03-16T10:10:31.212Z,20.81
2019-03-16T10:11:32.637Z,20.79
2019-03-16T10:12:34.053Z,20.79
2019-03-16T10:13:35.475Z,20.79
2019-03-16T10:14:37.342Z,20.78
2019-03-16T10:15:38.994Z,20.77
2019-03-16T10:16:40.411Z,20.76
2019-03-16T10:17:41.786Z,20.74
2019-03-16T10:18:43.280Z,20.73
2019-03-16T10:19:45.717Z,20.72
2019-03-16T10:20:47.127Z,20.70
2019-03-16T10:21:48.534Z,20.70
2019-03-16T10:22:49.945Z,20.68
2019-03-16T10:23:51.367Z,20.67
2019-03-16T10:24:52.780Z,20.65
2019-03-16T10:25:54.189Z,20.65
2019-03-16T10:26:55.768Z,20.64
2019-03-16T10:27:57.168Z,20.62
2019-03-16T10:28:58.534Z,20.62
2019-03-16T10:29:59.907Z,20.61
2019-03-16T10:31:01.404Z,20.59
2019-03-16T10:32:02.978Z,20.60
2019-03-16T10:33:04.381Z,20.61
2019-03-16T10:34:05.839Z,20.61
2019-03-16T10:35:07.237Z,20.62
2019-03-16T10:36:08.731Z,20.62
2019-03-16T10:37:10.406Z,20.62
2019-03-16T10:38:11.787Z,20.63
2019-03-16T10:39:13.192Z,20.64
2019-03-16T10:40:14.570Z,20.64
2019-03-16T10:41:15.975Z,20.65
2019-03-16T10:42:17.365Z,20.66
2019-03-16T10:43:18.758Z,20.67
2019-03-16T10:44:20.150Z,20.67
2019-03-16T10:45:21.539Z,20.67
2019-03-16T10:46:22.921Z,20.70
2019-03-16T10:47:24.487Z,20.70
2019-03-16T10:48:25.965Z,20.72
2019-03-16T10:49:27.368Z,20.72
2019-03-16T10:50:28.860Z,20.73
2019-03-16T10:51:30.257Z,20.74
2019-03-16T10:52:31.644Z,20.73
2019-03-16T10:53:33.036Z,20.73
2019-03-16T10:54:34.536Z,20.74
2019-03-16T10:55:35.924Z,20.74
2019-03-16T10:56:37.408Z,20.74
2019-03-16T10:57:38.909Z,20.74
2019-03-16T10:58:40.390Z,20.75
2019-03-16T10:59:41.889Z,20.74
2019-03-16T11:00:43.368Z,20.74
2019-03-16T11:01:44.780Z,20.75
2019-03-16T11:02:46.194Z,20.75
2019-03-16T11:03:47.593Z,20.75
2019-03-16T11:04:48.980Z,20.76
2019-03-16T11:05:51.369Z,20.76
2019-03-16T11:06:52.832Z,20.76
2019-03-16T11:07:54.299Z,20.77
2019-03-16T11:08:55.672Z,20.77
2019-03-16T11:09:57.047Z,20.77
2019-03-16T11:10:58.434Z,20.77
2019-03-16T11:11:59.809Z,20.78
2019-03-16T11:13:01.289Z,20.78
2019-03-16T11:14:03.073Z,20.79
2019-03-16T11:15:08.163Z,20.80
2019-03-16T11:16:09.544Z,20.82
2019-03-16T11:17:10.929Z,20.83
2019-03-16T11:18:12.445Z,20.83
2019-03-16T11:19:13.815Z,20.85
2019-03-16T11:20:16.608Z,20.84
2019-03-16T11:21:17.980Z,20.84
2019-03-16T11:22:19.372Z,20.86
2019-03-16T11:23:20.784Z,20.87
2019-03-16T11:24:22.270Z,20.87
2019-03-16T11:25:23.654Z,20.88
2019-03-16T11:26:25.042Z,20.87
2019-03-16T11:27:29.862Z,20.88
2019-03-16T11:28:31.254Z,20.89
2019-03-16T11:29:32.621Z,20.90
2019-03-16T11:30:34.016Z,20.91
2019-03-16T11:31:35.391Z,20.92
2019-03-16T11:32:36.787Z,20.92
2019-03-16T11:33:38.169Z,20.93
2019-03-16T11:34:39.557Z,20.93
2019-03-16T11:35:40.929Z,20.93
2019-03-16T11:36:42.314Z,20.94
2019-03-16T11:37:43.688Z,20.95
2019-03-16T11:38:45.152Z,20.95
2019-03-16T11:39:46.524Z,20.96
2019-03-16T11:40:47.892Z,20.98
2019-03-16T11:41:49.272Z,20.96
2019-03-16T11:42:50.643Z,20.97
2019-03-16T11:43:52.024Z,20.97
2019-03-16T11:44:54.409Z,20.96
2019-03-16T11:45:55.793Z,20.97
2019-03-16T11:46:57.185Z,20.96
2019-03-16T11:47:59.720Z,20.95
2019-03-16T11:49:01.170Z,20.97
2019-03-16T11:50:03.440Z,20.96
2019-03-16T11:51:04.940Z,20.97
2019-03-16T11:52:06.316Z,20.95
2019-03-16T11:53:07.712Z,20.94
2019-03-16T11:54:09.124Z,20.95
2019-03-16T11:55:10.599Z,20.94
2019-03-16T11:56:17.856Z,20.95
2019-03-16T11:57:15.372Z,20.95
2019-03-16T11:58:16.757Z,20.95
2019-03-16T11:59:21.768Z,20.97
2019-03-16T12:00:21.517Z,20.95
2019-03-16T12:01:22.910Z,20.98
2019-03-16T12:02:24.280Z,20.96
2019-03-16T12:03:25.677Z,20.96
2019-03-16T12:04:27.189Z,20.97
2019-03-16T12:05:28.668Z,20.98
2019-03-16T12:06:30.048Z,20.99
2019-03-16T12:07:31.435Z,20.97
2019-03-16T12:08:32.804Z,20.98
2019-03-16T12:09:34.284Z,20.98
2019-03-16T12:10:35.657Z,20.99
2019-03-16T12:11:37.025Z,20.99
2019-03-16T12:12:38.433Z,21.00
2019-03-16T12:13:39.837Z,20.98
2019-03-16T12:14:41.330Z,20.99
2019-03-16T12:15:42.703Z,20.99
2019-03-16T12:16:44.096Z,20.99
2019-03-16T12:17:45.464Z,20.99
2019-03-16T12:18:46.871Z,21.00
2019-03-16T12:19:48.359Z,21.00
2019-03-16T12:20:49.785Z,21.02
2019-03-16T12:21:51.183Z,21.02
2019-03-16T12:22:52.613Z,21.03
2019-03-16T12:23:54.021Z,21.04
2019-03-16T12:24:55.420Z,21.04
2019-03-16T12:25:56.790Z,21.05
2019-03-16T12:26:58.185Z,21.06
2019-03-16T12:27:59.601Z,21.06
2019-03-16T12:29:00.989Z,21.06
2019-03-16T12:30:04.678Z,21.05
2019-03-16T12:31:06.044Z,21.07
2019-03-16T12:32:07.442Z,21.08
2019-03-16T12:33:08.812Z,21.06
2019-03-16T12:34:10.317Z,21.08
2019-03-16T12:35:11.698Z,21.06
2019-03-16T12:36:13.101Z,21.06
2019-03-16T12:37:14.504Z,21.06
2019-03-16T12:38:15.910Z,21.05
2019-03-16T12:39:17.292Z,21.04
2019-03-16T12:40:18.772Z,21.04
2019-03-16T12:41:20.143Z,21.03
2019-03-16T12:42:21.538Z,21.02
2019-03-16T12:43:22.913Z,21.01
2019-03-16T12:44:24.308Z,20.99
2019-03-16T12:45:25.689Z,20.98
2019-03-16T12:46:27.068Z,20.98
2019-03-16T12:47:31.074Z,20.96
2019-03-16T12:48:31.732Z,20.96
2019-03-16T12:49:33.120Z,20.95
2019-03-16T12:50:34.616Z,20.94
2019-03-16T12:51:35.990Z,20.93
2019-03-16T12:52:37.385Z,20.93
2019-03-16T12:53:39.642Z,20.93
2019-03-16T12:54:41.147Z,20.93
2019-03-16T12:55:42.534Z,20.92
2019-03-16T12:56:43.924Z,20.91
2019-03-16T12:57:47.889Z,20.91
2019-03-16T12:58:48.590Z,20.91
2019-03-16T12:59:50.074Z,20.91
2019-03-16T13:00:51.565Z,20.90
2019-03-16T13:01:52.932Z,20.91
2019-03-16T13:02:54.326Z,20.90
2019-03-16T13:03:55.698Z,20.92
2019-03-16T13:04:57.189Z,20.92
2019-03-16T13:05:58.573Z,20.92
2019-03-16T13:06:59.957Z,20.93
2019-03-16T13:08:01.344Z,20.92
2019-03-16T13:09:05.324Z,20.93
2019-03-16T13:10:14.451Z,20.93
2019-03-16T13:11:16.103Z,20.95
2019-03-16T13:12:17.471Z,20.96
2019-03-16T13:13:18.857Z,20.96